sensor_id;sensor_type;location;lat;lon;timestamp;P1;durP1;ratioP1;P2;durP2;ratioP2
56435;SDS011;42335;44.872;20.658;2024-03-23T00:51:10;73.05;;;41.05;;
56435;SDS011;42335;44.872;20.658;2024-03-23T00:56:03;76.85;;;43.35;;
56435;SDS011;42335;44.872;20.658;2024-03-23T00:58:30;74.95;;;42.25;;
56435;SDS011;42335;44.872;20.658;2024-03-23T01:00:55;65.05;;;41.13;;
56435;SDS011;42335;44.872;20.658;2024-03-23T01:03:21;65.28;;;40.15;;
56435;SDS011;42335;44.872;20.658;2024-03-23T01:05:47;71.47;;;41.33;;
56435;SDS011;42335;44.872;20.658;2024-03-23T01:08:14;75.93;;;44.85;;
56435;SDS011;42335;44.872;20.658;2024-03-23T01:10:40;84.60;;;44.13;;
56435;SDS011;42335;44.872;20.658;2024-03-23T01:13:06;78.18;;;42.17;;
56435;SDS011;42335;44.872;20.658;2024-03-23T01:15:31;71.63;;;42.25;;
56435;SDS011;42335;44.872;20.658;2024-03-23T01:17:57;76.55;;;43.42;;
56435;SDS011;42335;44.872;20.658;2024-03-23T01:20:23;82.18;;;42.60;;
56435;SDS011;42335;44.872;20.658;2024-03-23T01:22:49;75.55;;;43.25;;
56435;SDS011;42335;44.872;20.658;2024-03-23T01:25:15;77.43;;;41.78;;
56435;SDS011;42335;44.872;20.658;2024-03-23T01:27:40;78.60;;;41.03;;
56435;SDS011;42335;44.872;20.658;2024-03-23T01:30:06;73.78;;;42.70;;
56435;SDS011;42335;44.872;20.658;2024-03-23T01:32:32;74.72;;;41.08;;
56435;SDS011;42335;44.872;20.658;2024-03-23T01:34:58;71.40;;;41.78;;
56435;SDS011;42335;44.872;20.658;2024-03-23T01:37:24;76.35;;;40.95;;
56435;SDS011;42335;44.872;20.658;2024-03-23T01:39:50;70.47;;;41.65;;
56435;SDS011;42335;44.872;20.658;2024-03-23T01:42:16;84.80;;;42.38;;
56435;SDS011;42335;44.872;20.658;2024-03-23T01:44:42;82.60;;;41.55;;
56435;SDS011;42335;44.872;20.658;2024-03-23T01:47:07;71.13;;;40.75;;
56435;SDS011;42335;44.872;20.658;2024-03-23T01:49:34;72.72;;;39.47;;
56435;SDS011;42335;44.872;20.658;2024-03-23T01:52:00;74.07;;;40.17;;
56435;SDS011;42335;44.872;20.658;2024-03-23T01:54:27;76.50;;;40.58;;
56435;SDS011;42335;44.872;20.658;2024-03-23T01:56:54;78.03;;;40.85;;
56435;SDS011;42335;44.872;20.658;2024-03-23T01:59:21;77.93;;;41.60;;
56435;SDS011;42335;44.872;20.658;2024-03-23T02:01:46;76.70;;;40.88;;
56435;SDS011;42335;44.872;20.658;2024-03-23T02:04:12;73.85;;;39.65;;
56435;SDS011;42335;44.872;20.658;2024-03-23T02:06:38;75.00;;;39.85;;
56435;SDS011;42335;44.872;20.658;2024-03-23T02:09:04;71.13;;;42.28;;
56435;SDS011;42335;44.872;20.658;2024-03-23T02:11:30;76.10;;;40.42;;
56435;SDS011;42335;44.872;20.658;2024-03-23T02:13:57;66.95;;;38.40;;
56435;SDS011;42335;44.872;20.658;2024-03-23T02:16:23;74.40;;;39.88;;
56435;SDS011;42335;44.872;20.658;2024-03-23T02:18:49;69.95;;;40.78;;
56435;SDS011;42335;44.872;20.658;2024-03-23T02:21:18;78.20;;;41.28;;
56435;SDS011;42335;44.872;20.658;2024-03-23T02:23:43;84.10;;;41.00;;
56435;SDS011;42335;44.872;20.658;2024-03-23T02:26:09;76.43;;;39.55;;
56435;SDS011;42335;44.872;20.658;2024-03-23T02:28:35;72.10;;;40.35;;
56435;SDS011;42335;44.872;20.658;2024-03-23T02:31:01;82.32;;;41.40;;
56435;SDS011;42335;44.872;20.658;2024-03-23T02:33:27;74.82;;;42.28;;
56435;SDS011;42335;44.872;20.658;2024-03-23T02:35:55;68.90;;;41.65;;
56435;SDS011;42335;44.872;20.658;2024-03-23T02:38:22;73.70;;;40.25;;
56435;SDS011;42335;44.872;20.658;2024-03-23T02:40:48;62.03;;;39.88;;
56435;SDS011;42335;44.872;20.658;2024-03-23T02:43:14;77.15;;;39.75;;
56435;SDS011;42335;44.872;20.658;2024-03-23T02:45:40;73.60;;;41.45;;
56435;SDS011;42335;44.872;20.658;2024-03-23T02:48:06;66.13;;;39.35;;
56435;SDS011;42335;44.872;20.658;2024-03-23T02:50:32;64.80;;;40.92;;
56435;SDS011;42335;44.872;20.658;2024-03-23T02:52:57;78.93;;;44.00;;
56435;SDS011;42335;44.872;20.658;2024-03-23T02:55:23;67.10;;;40.53;;
56435;SDS011;42335;44.872;20.658;2024-03-23T02:57:49;68.18;;;41.03;;
56435;SDS011;42335;44.872;20.658;2024-03-23T03:00:15;81.75;;;42.53;;
56435;SDS011;42335;44.872;20.658;2024-03-23T03:02:41;77.75;;;42.85;;
56435;SDS011;42335;44.872;20.658;2024-03-23T03:05:07;78.60;;;42.60;;
56435;SDS011;42335;44.872;20.658;2024-03-23T03:07:34;73.43;;;39.80;;
56435;SDS011;42335;44.872;20.658;2024-03-23T03:10:00;75.03;;;42.75;;
56435;SDS011;42335;44.872;20.658;2024-03-23T03:12:25;72.65;;;43.70;;
56435;SDS011;42335;44.872;20.658;2024-03-23T03:14:52;70.57;;;42.22;;
56435;SDS011;42335;44.872;20.658;2024-03-23T03:17:18;82.82;;;41.67;;
56435;SDS011;42335;44.872;20.658;2024-03-23T03:19:44;65.38;;;41.05;;
56435;SDS011;42335;44.872;20.658;2024-03-23T03:22:10;63.03;;;40.10;;
56435;SDS011;42335;44.872;20.658;2024-03-23T03:24:36;78.15;;;38.90;;
56435;SDS011;42335;44.872;20.658;2024-03-23T03:27:02;76.50;;;41.75;;
56435;SDS011;42335;44.872;20.658;2024-03-23T03:29:28;65.55;;;38.80;;
56435;SDS011;42335;44.872;20.658;2024-03-23T03:32:00;64.53;;;38.85;;
56435;SDS011;42335;44.872;20.658;2024-03-23T03:34:30;68.38;;;39.22;;
56435;SDS011;42335;44.872;20.658;2024-03-23T03:36:56;65.78;;;37.50;;
56435;SDS011;42335;44.872;20.658;2024-03-23T03:39:23;59.70;;;36.08;;
56435;SDS011;42335;44.872;20.658;2024-03-23T03:41:49;61.13;;;37.72;;
56435;SDS011;42335;44.872;20.658;2024-03-23T03:44:15;70.53;;;39.53;;
56435;SDS011;42335;44.872;20.658;2024-03-23T03:46:42;64.97;;;37.00;;
56435;SDS011;42335;44.872;20.658;2024-03-23T03:49:08;61.80;;;37.40;;
56435;SDS011;42335;44.872;20.658;2024-03-23T03:51:33;71.80;;;38.35;;
56435;SDS011;42335;44.872;20.658;2024-03-23T03:53:59;66.28;;;37.17;;
56435;SDS011;42335;44.872;20.658;2024-03-23T03:56:25;69.65;;;36.63;;
56435;SDS011;42335;44.872;20.658;2024-03-23T03:58:52;64.13;;;37.97;;
56435;SDS011;42335;44.872;20.658;2024-03-23T04:01:18;61.35;;;37.50;;
56435;SDS011;42335;44.872;20.658;2024-03-23T04:03:43;67.57;;;38.67;;
56435;SDS011;42335;44.872;20.658;2024-03-23T04:06:10;66.45;;;36.45;;
56435;SDS011;42335;44.872;20.658;2024-03-23T04:08:36;68.68;;;36.92;;
56435;SDS011;42335;44.872;20.658;2024-03-23T04:11:02;72.07;;;39.72;;
56435;SDS011;42335;44.872;20.658;2024-03-23T04:13:28;70.15;;;38.08;;
56435;SDS011;42335;44.872;20.658;2024-03-23T04:15:54;65.07;;;36.30;;
56435;SDS011;42335;44.872;20.658;2024-03-23T04:18:21;64.32;;;37.60;;
56435;SDS011;42335;44.872;20.658;2024-03-23T04:20:48;63.42;;;36.80;;
56435;SDS011;42335;44.872;20.658;2024-03-23T04:23:14;63.45;;;37.60;;
56435;SDS011;42335;44.872;20.658;2024-03-23T04:25:40;65.07;;;37.25;;
56435;SDS011;42335;44.872;20.658;2024-03-23T04:28:05;72.15;;;37.50;;
56435;SDS011;42335;44.872;20.658;2024-03-23T04:30:31;62.47;;;37.40;;
56435;SDS011;42335;44.872;20.658;2024-03-23T04:32:57;64.63;;;33.65;;
56435;SDS011;42335;44.872;20.658;2024-03-23T04:35:24;61.95;;;37.05;;
56435;SDS011;42335;44.872;20.658;2024-03-23T04:37:50;59.85;;;36.47;;
56435;SDS011;42335;44.872;20.658;2024-03-23T04:40:17;72.57;;;43.55;;
56435;SDS011;42335;44.872;20.658;2024-03-23T04:42:43;59.85;;;38.03;;
56435;SDS011;42335;44.872;20.658;2024-03-23T04:45:10;63.67;;;39.60;;
56435;SDS011;42335;44.872;20.658;2024-03-23T04:47:36;65.57;;;37.97;;
56435;SDS011;42335;44.872;20.658;2024-03-23T04:50:03;65.88;;;37.55;;
56435;SDS011;42335;44.872;20.658;2024-03-23T04:52:30;58.45;;;36.22;;
56435;SDS011;42335;44.872;20.658;2024-03-23T04:54:56;67.53;;;40.10;;
56435;SDS011;42335;44.872;20.658;2024-03-23T04:57:22;71.50;;;39.97;;
56435;SDS011;42335;44.872;20.658;2024-03-23T04:59:48;67.75;;;39.25;;
56435;SDS011;42335;44.872;20.658;2024-03-23T05:02:14;63.33;;;38.25;;
56435;SDS011;42335;44.872;20.658;2024-03-23T05:04:40;61.95;;;36.50;;
56435;SDS011;42335;44.872;20.658;2024-03-23T05:07:07;62.95;;;34.35;;
56435;SDS011;42335;44.872;20.658;2024-03-23T05:09:33;58.83;;;34.65;;
56435;SDS011;42335;44.872;20.658;2024-03-23T05:11:59;57.97;;;34.70;;
56435;SDS011;42335;44.872;20.658;2024-03-23T05:14:25;59.45;;;33.92;;
56435;SDS011;42335;44.872;20.658;2024-03-23T05:16:52;65.68;;;34.15;;
56435;SDS011;42335;44.872;20.658;2024-03-23T05:19:18;57.35;;;34.03;;
56435;SDS011;42335;44.872;20.658;2024-03-23T05:21:44;59.72;;;34.10;;
56435;SDS011;42335;44.872;20.658;2024-03-23T05:24:11;56.58;;;35.33;;
56435;SDS011;42335;44.872;20.658;2024-03-23T05:26:37;51.45;;;32.88;;
56435;SDS011;42335;44.872;20.658;2024-03-23T05:29:03;51.50;;;32.17;;
56435;SDS011;42335;44.872;20.658;2024-03-23T05:31:30;60.42;;;32.92;;
56435;SDS011;42335;44.872;20.658;2024-03-23T05:33:56;58.50;;;33.20;;
56435;SDS011;42335;44.872;20.658;2024-03-23T05:36:22;52.78;;;33.22;;
56435;SDS011;42335;44.872;20.658;2024-03-23T05:38:51;52.45;;;31.98;;
56435;SDS011;42335;44.872;20.658;2024-03-23T05:41:17;56.38;;;35.70;;
56435;SDS011;42335;44.872;20.658;2024-03-23T05:43:43;59.17;;;36.47;;
56435;SDS011;42335;44.872;20.658;2024-03-23T05:46:09;56.15;;;34.83;;
56435;SDS011;42335;44.872;20.658;2024-03-23T05:48:35;63.15;;;37.65;;
56435;SDS011;42335;44.872;20.658;2024-03-23T05:51:01;56.40;;;33.72;;
56435;SDS011;42335;44.872;20.658;2024-03-23T05:53:27;56.58;;;32.67;;
56435;SDS011;42335;44.872;20.658;2024-03-23T05:56:01;62.63;;;30.30;;
56435;SDS011;42335;44.872;20.658;2024-03-23T05:58:32;53.72;;;32.50;;
56435;SDS011;42335;44.872;20.658;2024-03-23T06:00:58;56.15;;;31.75;;
56435;SDS011;42335;44.872;20.658;2024-03-23T06:03:26;52.85;;;29.60;;
56435;SDS011;42335;44.872;20.658;2024-03-23T06:05:52;51.08;;;29.30;;
56435;SDS011;42335;44.872;20.658;2024-03-23T06:08:18;49.10;;;29.08;;
56435;SDS011;42335;44.872;20.658;2024-03-23T06:10:45;50.35;;;29.00;;
56435;SDS011;42335;44.872;20.658;2024-03-23T06:13:11;45.70;;;28.35;;
56435;SDS011;42335;44.872;20.658;2024-03-23T06:15:38;41.25;;;27.40;;
56435;SDS011;42335;44.872;20.658;2024-03-23T06:18:04;46.95;;;27.65;;
56435;SDS011;42335;44.872;20.658;2024-03-23T06:20:30;54.53;;;28.88;;
56435;SDS011;42335;44.872;20.658;2024-03-23T06:22:56;47.92;;;27.48;;
56435;SDS011;42335;44.872;20.658;2024-03-23T06:25:23;43.65;;;26.90;;
56435;SDS011;42335;44.872;20.658;2024-03-23T06:27:49;46.33;;;27.52;;
56435;SDS011;42335;44.872;20.658;2024-03-23T06:30:14;44.67;;;27.95;;
56435;SDS011;42335;44.872;20.658;2024-03-23T06:32:40;44.05;;;25.75;;
56435;SDS011;42335;44.872;20.658;2024-03-23T06:35:07;49.13;;;26.60;;
56435;SDS011;42335;44.872;20.658;2024-03-23T06:37:35;44.15;;;25.60;;
56435;SDS011;42335;44.872;20.658;2024-03-23T06:40:02;41.13;;;24.63;;
56435;SDS011;42335;44.872;20.658;2024-03-23T06:42:30;45.25;;;25.80;;
56435;SDS011;42335;44.872;20.658;2024-03-23T06:44:55;39.55;;;23.67;;
56435;SDS011;42335;44.872;20.658;2024-03-23T06:47:21;39.05;;;25.08;;
56435;SDS011;42335;44.872;20.658;2024-03-23T06:49:47;37.50;;;23.98;;
56435;SDS011;42335;44.872;20.658;2024-03-23T06:52:13;45.38;;;23.88;;
56435;SDS011;42335;44.872;20.658;2024-03-23T06:54:38;33.20;;;23.08;;
56435;SDS011;42335;44.872;20.658;2024-03-23T06:57:04;35.90;;;23.13;;
56435;SDS011;42335;44.872;20.658;2024-03-23T06:59:30;36.80;;;22.80;;
56435;SDS011;42335;44.872;20.658;2024-03-23T07:01:56;31.85;;;20.90;;
56435;SDS011;42335;44.872;20.658;2024-03-23T07:04:22;35.88;;;21.10;;
56435;SDS011;42335;44.872;20.658;2024-03-23T07:06:47;33.25;;;21.95;;
56435;SDS011;42335;44.872;20.658;2024-03-23T07:09:13;35.17;;;21.77;;
56435;SDS011;42335;44.872;20.658;2024-03-23T07:11:39;38.92;;;22.08;;
56435;SDS011;42335;44.872;20.658;2024-03-23T07:14:05;38.53;;;21.70;;
56435;SDS011;42335;44.872;20.658;2024-03-23T07:16:31;32.95;;;19.90;;
56435;SDS011;42335;44.872;20.658;2024-03-23T07:18:57;39.58;;;20.17;;
56435;SDS011;42335;44.872;20.658;2024-03-23T07:21:24;33.88;;;20.85;;
56435;SDS011;42335;44.872;20.658;2024-03-23T07:23:50;27.05;;;19.30;;
56435;SDS011;42335;44.872;20.658;2024-03-23T07:26:16;34.17;;;20.08;;
56435;SDS011;42335;44.872;20.658;2024-03-23T07:28:43;26.95;;;19.83;;
56435;SDS011;42335;44.872;20.658;2024-03-23T07:31:11;29.38;;;19.33;;
56435;SDS011;42335;44.872;20.658;2024-03-23T07:33:45;33.75;;;20.13;;
56435;SDS011;42335;44.872;20.658;2024-03-23T07:36:12;28.48;;;19.73;;
56435;SDS011;42335;44.872;20.658;2024-03-23T07:38:41;36.08;;;19.10;;
56435;SDS011;42335;44.872;20.658;2024-03-23T07:41:08;33.78;;;18.17;;
56435;SDS011;42335;44.872;20.658;2024-03-23T07:43:35;28.67;;;18.85;;
56435;SDS011;42335;44.872;20.658;2024-03-23T07:46:02;32.70;;;18.20;;
56435;SDS011;42335;44.872;20.658;2024-03-23T07:48:29;28.40;;;17.83;;
56435;SDS011;42335;44.872;20.658;2024-03-23T07:50:59;35.13;;;17.90;;
56435;SDS011;42335;44.872;20.658;2024-03-23T07:53:32;30.50;;;19.55;;
56435;SDS011;42335;44.872;20.658;2024-03-23T07:56:00;32.92;;;18.20;;
56435;SDS011;42335;44.872;20.658;2024-03-23T07:58:27;23.75;;;16.73;;
56435;SDS011;42335;44.872;20.658;2024-03-23T08:01:01;24.30;;;16.45;;
56435;SDS011;42335;44.872;20.658;2024-03-23T08:03:42;42.10;;;18.83;;
56435;SDS011;42335;44.872;20.658;2024-03-23T08:06:10;25.65;;;17.17;;
56435;SDS011;42335;44.872;20.658;2024-03-23T08:08:37;22.90;;;15.45;;
56435;SDS011;42335;44.872;20.658;2024-03-23T08:11:04;29.75;;;15.10;;
56435;SDS011;42335;44.872;20.658;2024-03-23T08:13:30;27.13;;;14.55;;
56435;SDS011;42335;44.872;20.658;2024-03-23T08:15:56;23.90;;;15.00;;
56435;SDS011;42335;44.872;20.658;2024-03-23T08:18:23;27.55;;;14.90;;
56435;SDS011;42335;44.872;20.658;2024-03-23T08:21:03;21.83;;;13.95;;
56435;SDS011;42335;44.872;20.658;2024-03-23T08:23:31;21.15;;;14.65;;
56435;SDS011;42335;44.872;20.658;2024-03-23T08:25:59;18.95;;;11.80;;
56435;SDS011;42335;44.872;20.658;2024-03-23T08:28:26;65.38;;;43.28;;
56435;SDS011;42335;44.872;20.658;2024-03-23T08:30:53;34.67;;;23.40;;
56435;SDS011;42335;44.872;20.658;2024-03-23T08:33:20;38.05;;;23.33;;
56435;SDS011;42335;44.872;20.658;2024-03-23T08:35:55;34.53;;;22.85;;
56435;SDS011;42335;44.872;20.658;2024-03-23T08:38:22;17.65;;;11.90;;
56435;SDS011;42335;44.872;20.658;2024-03-23T08:40:58;18.35;;;11.07;;
56435;SDS011;42335;44.872;20.658;2024-03-23T08:43:24;21.50;;;11.18;;
56435;SDS011;42335;44.872;20.658;2024-03-23T08:45:51;18.10;;;11.32;;
56435;SDS011;42335;44.872;20.658;2024-03-23T08:48:17;20.70;;;11.63;;
56435;SDS011;42335;44.872;20.658;2024-03-23T08:50:45;15.00;;;10.70;;
56435;SDS011;42335;44.872;20.658;2024-03-23T08:53:26;17.67;;;10.98;;
56435;SDS011;42335;44.872;20.658;2024-03-23T08:55:54;14.57;;;11.02;;
56435;SDS011;42335;44.872;20.658;2024-03-23T08:58:20;21.70;;;12.05;;
56435;SDS011;42335;44.872;20.658;2024-03-23T09:00:47;17.70;;;10.23;;
56435;SDS011;42335;44.872;20.658;2024-03-23T09:03:12;15.27;;;9.85;;
56435;SDS011;42335;44.872;20.658;2024-03-23T09:05:39;17.75;;;10.18;;
56435;SDS011;42335;44.872;20.658;2024-03-23T09:08:05;49.72;;;36.42;;
56435;SDS011;42335;44.872;20.658;2024-03-23T09:10:31;15.43;;;10.00;;
56435;SDS011;42335;44.872;20.658;2024-03-23T09:13:00;14.57;;;8.73;;
56435;SDS011;42335;44.872;20.658;2024-03-23T09:15:26;13.35;;;9.00;;
56435;SDS011;42335;44.872;20.658;2024-03-23T09:17:51;15.57;;;10.52;;
56435;SDS011;42335;44.872;20.658;2024-03-23T09:20:17;13.45;;;9.63;;
56435;SDS011;42335;44.872;20.658;2024-03-23T09:22:43;13.50;;;8.95;;
56435;SDS011;42335;44.872;20.658;2024-03-23T09:25:09;15.00;;;8.20;;
56435;SDS011;42335;44.872;20.658;2024-03-23T09:27:35;14.00;;;9.35;;
56435;SDS011;42335;44.872;20.658;2024-03-23T09:30:01;13.55;;;8.10;;
56435;SDS011;42335;44.872;20.658;2024-03-23T09:32:27;23.65;;;8.80;;
56435;SDS011;42335;44.872;20.658;2024-03-23T09:34:53;11.23;;;8.43;;
56435;SDS011;42335;44.872;20.658;2024-03-23T09:37:18;117.43;;;91.93;;
56435;SDS011;42335;44.872;20.658;2024-03-23T09:39:44;18.70;;;11.20;;
56435;SDS011;42335;44.872;20.658;2024-03-23T09:42:10;12.63;;;8.05;;
56435;SDS011;42335;44.872;20.658;2024-03-23T09:44:36;15.52;;;9.05;;
56435;SDS011;42335;44.872;20.658;2024-03-23T09:47:02;13.48;;;7.90;;
56435;SDS011;42335;44.872;20.658;2024-03-23T09:49:28;18.80;;;8.48;;
56435;SDS011;42335;44.872;20.658;2024-03-23T09:51:55;15.23;;;8.60;;
56435;SDS011;42335;44.872;20.658;2024-03-23T09:54:21;14.25;;;7.70;;
56435;SDS011;42335;44.872;20.658;2024-03-23T09:56:47;12.43;;;7.07;;
56435;SDS011;42335;44.872;20.658;2024-03-23T09:59:13;15.70;;;8.15;;
56435;SDS011;42335;44.872;20.658;2024-03-23T10:01:39;12.95;;;7.43;;
56435;SDS011;42335;44.872;20.658;2024-03-23T10:04:05;10.07;;;7.30;;
56435;SDS011;42335;44.872;20.658;2024-03-23T10:06:31;11.52;;;7.22;;
56435;SDS011;42335;44.872;20.658;2024-03-23T10:08:57;13.95;;;7.15;;
56435;SDS011;42335;44.872;20.658;2024-03-23T10:11:23;9.27;;;6.30;;
56435;SDS011;42335;44.872;20.658;2024-03-23T10:13:50;13.93;;;7.15;;
56435;SDS011;42335;44.872;20.658;2024-03-23T10:16:23;10.10;;;6.70;;
56435;SDS011;42335;44.872;20.658;2024-03-23T10:18:49;10.40;;;6.65;;
56435;SDS011;42335;44.872;20.658;2024-03-23T10:21:15;8.77;;;5.90;;
56435;SDS011;42335;44.872;20.658;2024-03-23T10:23:43;10.95;;;6.75;;
56435;SDS011;42335;44.872;20.658;2024-03-23T10:26:22;10.18;;;5.38;;
56435;SDS011;42335;44.872;20.658;2024-03-23T10:28:56;12.50;;;6.15;;
56435;SDS011;42335;44.872;20.658;2024-03-23T10:31:32;8.27;;;5.82;;
56435;SDS011;42335;44.872;20.658;2024-03-23T10:34:02;10.25;;;5.72;;
56435;SDS011;42335;44.872;20.658;2024-03-23T10:36:29;11.50;;;5.60;;
56435;SDS011;42335;44.872;20.658;2024-03-23T10:38:55;6.75;;;5.18;;
56435;SDS011;42335;44.872;20.658;2024-03-23T10:41:27;10.30;;;5.93;;
56435;SDS011;42335;44.872;20.658;2024-03-23T10:43:56;7.47;;;5.37;;
56435;SDS011;42335;44.872;20.658;2024-03-23T10:46:24;10.02;;;5.13;;
56435;SDS011;42335;44.872;20.658;2024-03-23T10:48:50;8.82;;;5.30;;
56435;SDS011;42335;44.872;20.658;2024-03-23T10:51:16;8.32;;;4.72;;
56435;SDS011;42335;44.872;20.658;2024-03-23T10:53:42;8.07;;;5.00;;
56435;SDS011;42335;44.872;20.658;2024-03-23T10:56:08;9.25;;;5.63;;
56435;SDS011;42335;44.872;20.658;2024-03-23T10:58:37;11.55;;;6.22;;
56435;SDS011;42335;44.872;20.658;2024-03-23T11:01:05;6.28;;;4.30;;
56435;SDS011;42335;44.872;20.658;2024-03-23T11:05:59;6.88;;;3.75;;
56435;SDS011;42335;44.872;20.658;2024-03-23T11:08:29;8.80;;;4.85;;
56435;SDS011;42335;44.872;20.658;2024-03-23T11:11:18;10.30;;;4.35;;
56435;SDS011;42335;44.872;20.658;2024-03-23T11:13:50;6.65;;;4.20;;
56435;SDS011;42335;44.872;20.658;2024-03-23T11:16:21;13.13;;;5.72;;
56435;SDS011;42335;44.872;20.658;2024-03-23T11:22:04;5.57;;;3.73;;
56435;SDS011;42335;44.872;20.658;2024-03-23T11:24:30;6.78;;;3.83;;
56435;SDS011;42335;44.872;20.658;2024-03-23T11:26:57;8.77;;;4.05;;
56435;SDS011;42335;44.872;20.658;2024-03-23T11:29:28;9.00;;;4.00;;
56435;SDS011;42335;44.872;20.658;2024-03-23T11:31:55;5.85;;;3.60;;
56435;SDS011;42335;44.872;20.658;2024-03-23T11:34:21;5.15;;;3.17;;
56435;SDS011;42335;44.872;20.658;2024-03-23T11:36:47;7.68;;;3.88;;
56435;SDS011;42335;44.872;20.658;2024-03-23T11:39:16;5.75;;;3.35;;
56435;SDS011;42335;44.872;20.658;2024-03-23T11:41:50;5.18;;;3.08;;
56435;SDS011;42335;44.872;20.658;2024-03-23T11:44:22;4.47;;;2.20;;
56435;SDS011;42335;44.872;20.658;2024-03-23T11:46:50;4.35;;;2.20;;
56435;SDS011;42335;44.872;20.658;2024-03-23T11:49:27;6.72;;;2.30;;
56435;SDS011;42335;44.872;20.658;2024-03-23T11:51:54;6.80;;;2.40;;
56435;SDS011;42335;44.872;20.658;2024-03-23T11:54:22;4.05;;;2.60;;
56435;SDS011;42335;44.872;20.658;2024-03-23T11:56:55;4.38;;;2.72;;
56435;SDS011;42335;44.872;20.658;2024-03-23T12:02:00;5.13;;;2.65;;
56435;SDS011;42335;44.872;20.658;2024-03-23T12:04:31;4.07;;;2.58;;
56435;SDS011;42335;44.872;20.658;2024-03-23T12:09:38;4.53;;;2.20;;
56435;SDS011;42335;44.872;20.658;2024-03-23T12:12:05;5.40;;;2.40;;
56435;SDS011;42335;44.872;20.658;2024-03-23T12:14:42;5.43;;;2.60;;
56435;SDS011;42335;44.872;20.658;2024-03-23T12:17:26;5.22;;;2.55;;
56435;SDS011;42335;44.872;20.658;2024-03-23T12:19:51;5.25;;;2.50;;
56435;SDS011;42335;44.872;20.658;2024-03-23T12:22:21;8.35;;;3.10;;
56435;SDS011;42335;44.872;20.658;2024-03-23T12:24:47;5.32;;;2.63;;
56435;SDS011;42335;44.872;20.658;2024-03-23T12:27:14;5.50;;;2.67;;
56435;SDS011;42335;44.872;20.658;2024-03-23T12:29:40;3.03;;;2.08;;
56435;SDS011;42335;44.872;20.658;2024-03-23T12:32:13;10.13;;;2.77;;
56435;SDS011;42335;44.872;20.658;2024-03-23T12:34:39;9.15;;;3.38;;
56435;SDS011;42335;44.872;20.658;2024-03-23T12:37:06;4.63;;;2.83;;
56435;SDS011;42335;44.872;20.658;2024-03-23T12:39:32;5.13;;;2.58;;
56435;SDS011;42335;44.872;20.658;2024-03-23T12:41:58;3.72;;;2.92;;
56435;SDS011;42335;44.872;20.658;2024-03-23T12:44:23;6.18;;;3.53;;
56435;SDS011;42335;44.872;20.658;2024-03-23T12:46:49;195.88;;;168.50;;
56435;SDS011;42335;44.872;20.658;2024-03-23T12:49:15;4.35;;;2.72;;
56435;SDS011;42335;44.872;20.658;2024-03-23T12:51:46;6.18;;;2.78;;
56435;SDS011;42335;44.872;20.658;2024-03-23T12:54:24;4.03;;;2.80;;
56435;SDS011;42335;44.872;20.658;2024-03-23T12:56:50;7.15;;;2.83;;
56435;SDS011;42335;44.872;20.658;2024-03-23T12:59:16;11.18;;;3.38;;
56435;SDS011;42335;44.872;20.658;2024-03-23T13:01:43;5.50;;;2.80;;
56435;SDS011;42335;44.872;20.658;2024-03-23T13:04:09;6.03;;;2.90;;
56435;SDS011;42335;44.872;20.658;2024-03-23T13:06:36;9.93;;;2.78;;
56435;SDS011;42335;44.872;20.658;2024-03-23T13:09:02;3.78;;;2.67;;
56435;SDS011;42335;44.872;20.658;2024-03-23T13:11:28;8.23;;;2.90;;
56435;SDS011;42335;44.872;20.658;2024-03-23T13:13:55;11.80;;;2.80;;
56435;SDS011;42335;44.872;20.658;2024-03-23T13:16:21;4.28;;;2.25;;
56435;SDS011;42335;44.872;20.658;2024-03-23T13:18:46;7.05;;;3.13;;
56435;SDS011;42335;44.872;20.658;2024-03-23T13:21:12;57.10;;;50.78;;
56435;SDS011;42335;44.872;20.658;2024-03-23T13:23:38;8.75;;;4.60;;
56435;SDS011;42335;44.872;20.658;2024-03-23T13:26:07;43.75;;;35.88;;
56435;SDS011;42335;44.872;20.658;2024-03-23T13:28:33;103.57;;;89.22;;
56435;SDS011;42335;44.872;20.658;2024-03-23T13:30:59;6.70;;;3.92;;
56435;SDS011;42335;44.872;20.658;2024-03-23T13:33:28;5.55;;;3.00;;
56435;SDS011;42335;44.872;20.658;2024-03-23T13:35:55;5.28;;;2.70;;
56435;SDS011;42335;44.872;20.658;2024-03-23T13:38:22;9.05;;;3.08;;
56435;SDS011;42335;44.872;20.658;2024-03-23T13:43:26;6.00;;;2.75;;
56435;SDS011;42335;44.872;20.658;2024-03-23T13:45:56;5.70;;;2.72;;
56435;SDS011;42335;44.872;20.658;2024-03-23T13:48:25;5.40;;;2.88;;
56435;SDS011;42335;44.872;20.658;2024-03-23T13:50:58;12.30;;;6.00;;
56435;SDS011;42335;44.872;20.658;2024-03-23T13:53:25;10.52;;;3.63;;
56435;SDS011;42335;44.872;20.658;2024-03-23T13:55:51;9.82;;;2.95;;
56435;SDS011;42335;44.872;20.658;2024-03-23T13:58:17;5.15;;;2.58;;
56435;SDS011;42335;44.872;20.658;2024-03-23T14:00:44;6.35;;;3.80;;
56435;SDS011;42335;44.872;20.658;2024-03-23T14:03:10;7.25;;;3.63;;
56435;SDS011;42335;44.872;20.658;2024-03-23T14:05:39;5.63;;;3.33;;
56435;SDS011;42335;44.872;20.658;2024-03-23T14:08:06;7.57;;;3.45;;
56435;SDS011;42335;44.872;20.658;2024-03-23T14:10:35;5.85;;;2.97;;
56435;SDS011;42335;44.872;20.658;2024-03-23T14:13:05;8.27;;;2.47;;
56435;SDS011;42335;44.872;20.658;2024-03-23T14:15:31;35.20;;;24.98;;
56435;SDS011;42335;44.872;20.658;2024-03-23T14:17:57;28.02;;;23.10;;
56435;SDS011;42335;44.872;20.658;2024-03-23T14:20:23;3.95;;;2.85;;
56435;SDS011;42335;44.872;20.658;2024-03-23T14:22:49;7.63;;;3.50;;
56435;SDS011;42335;44.872;20.658;2024-03-23T14:25:16;5.43;;;2.67;;
56435;SDS011;42335;44.872;20.658;2024-03-23T14:27:45;7.07;;;2.90;;
56435;SDS011;42335;44.872;20.658;2024-03-23T14:30:12;5.07;;;2.80;;
56435;SDS011;42335;44.872;20.658;2024-03-23T14:32:39;4.75;;;2.95;;
56435;SDS011;42335;44.872;20.658;2024-03-23T14:35:05;5.93;;;3.08;;
56435;SDS011;42335;44.872;20.658;2024-03-23T14:37:38;3.60;;;2.63;;
56435;SDS011;42335;44.872;20.658;2024-03-23T14:40:07;8.00;;;2.97;;
56435;SDS011;42335;44.872;20.658;2024-03-23T14:42:33;8.90;;;3.42;;
56435;SDS011;42335;44.872;20.658;2024-03-23T14:44:59;4.22;;;3.08;;
56435;SDS011;42335;44.872;20.658;2024-03-23T14:47:25;5.70;;;3.28;;
56435;SDS011;42335;44.872;20.658;2024-03-23T14:49:51;4.55;;;3.30;;
56435;SDS011;42335;44.872;20.658;2024-03-23T14:52:17;6.70;;;3.40;;
56435;SDS011;42335;44.872;20.658;2024-03-23T14:54:46;9.38;;;3.20;;
56435;SDS011;42335;44.872;20.658;2024-03-23T14:57:12;4.43;;;3.15;;
56435;SDS011;42335;44.872;20.658;2024-03-23T14:59:38;5.68;;;2.95;;
56435;SDS011;42335;44.872;20.658;2024-03-23T15:02:06;4.43;;;2.90;;
56435;SDS011;42335;44.872;20.658;2024-03-23T15:04:33;8.55;;;3.05;;
56435;SDS011;42335;44.872;20.658;2024-03-23T15:06:59;260.27;;;213.23;;
56435;SDS011;42335;44.872;20.658;2024-03-23T15:09:25;28.52;;;23.23;;
56435;SDS011;42335;44.872;20.658;2024-03-23T15:11:51;7.47;;;3.45;;
56435;SDS011;42335;44.872;20.658;2024-03-23T15:14:16;4.72;;;3.33;;
56435;SDS011;42335;44.872;20.658;2024-03-23T15:16:42;9.52;;;3.25;;
56435;SDS011;42335;44.872;20.658;2024-03-23T15:19:08;5.70;;;3.35;;
56435;SDS011;42335;44.872;20.658;2024-03-23T15:21:34;4.30;;;2.83;;